Terminal Aerodrome Forecast
Issued by NWS Portland, OR

Home | Current Version | Previous Version | Text Only | Print | Product List | Glossary On
Versions: 1 2 3 4 5 6 7 8 9 10 11 12 13 14 15 16 17 18 19 20 21 22 23 24 25 26
000
FTUS46 KPQR 220528
TAFAST
TAF
KAST 220528Z 2206/2306 13004KT P6SM OVC050
     FM220800 08007KT P6SM OVC050
     FM221200 13014G22KT 6SM -RA SCT020 OVC035
     FM221900 17017G24KT P6SM -SHRA SCT020 BKN070
     FM230000 17013G20KT P6SM -SHRA BKN050 BKN100
     FM230200 16010KT P6SM BKN100=

USA.gov is the U.S. government's official web portal to all federal, state and local government web resources and services.